sensor_id;sensor_type;location;lat;lon;timestamp;pressure;altitude;pressure_sealevel;temperature;humidity
70982;BME280;58640;51.320;9.456;2022-08-19T00:00:25;99031.03;;;20.80;67.46
70982;BME280;58640;51.320;9.456;2022-08-19T00:02:50;99038.81;;;20.88;66.82
70982;BME280;58640;51.320;9.456;2022-08-19T00:05:17;99037.47;;;21.07;66.33
70982;BME280;58640;51.320;9.456;2022-08-19T00:07:43;99031.75;;;21.09;66.20
70982;BME280;58640;51.320;9.456;2022-08-19T00:10:10;99027.84;;;21.05;66.42
70982;BME280;58640;51.320;9.456;2022-08-19T00:12:37;99035.31;;;20.93;67.01
70982;BME280;58640;51.320;9.456;2022-08-19T00:15:08;99041.03;;;20.91;66.95
70982;BME280;58640;51.320;9.456;2022-08-19T00:17:37;99033.34;;;20.88;67.12
70982;BME280;58640;51.320;9.456;2022-08-19T00:20:03;99030.69;;;20.93;67.00
70982;BME280;58640;51.320;9.456;2022-08-19T00:22:29;99031.66;;;20.87;67.32
70982;BME280;58640;51.320;9.456;2022-08-19T00:24:54;99032.25;;;20.89;67.60
70982;BME280;58640;51.320;9.456;2022-08-19T00:27:20;99023.25;;;20.72;68.16
70982;BME280;58640;51.320;9.456;2022-08-19T00:29:45;99017.53;;;20.74;68.26
70982;BME280;58640;51.320;9.456;2022-08-19T00:32:10;99021.84;;;20.70;68.40
70982;BME280;58640;51.320;9.456;2022-08-19T00:34:37;99020.28;;;20.74;68.12
70982;BME280;58640;51.320;9.456;2022-08-19T00:37:02;99034.97;;;20.68;68.74
70982;BME280;58640;51.320;9.456;2022-08-19T00:39:28;99023.19;;;20.67;68.69
70982;BME280;58640;51.320;9.456;2022-08-19T00:41:53;99022.19;;;20.73;68.47
70982;BME280;58640;51.320;9.456;2022-08-19T00:44:22;99022.25;;;20.78;68.86
70982;BME280;58640;51.320;9.456;2022-08-19T00:46:49;99017.06;;;20.60;69.45
70982;BME280;58640;51.320;9.456;2022-08-19T00:49:20;99013.66;;;20.70;69.19
70982;BME280;58640;51.320;9.456;2022-08-19T00:51:51;99007.03;;;20.66;69.59
70982;BME280;58640;51.320;9.456;2022-08-19T00:54:19;99006.78;;;20.67;69.37
70982;BME280;58640;51.320;9.456;2022-08-19T00:56:44;99007.63;;;20.68;69.52
70982;BME280;58640;51.320;9.456;2022-08-19T00:59:11;99009.75;;;20.82;68.91
70982;BME280;58640;51.320;9.456;2022-08-19T01:01:40;99019.53;;;20.62;70.16
70982;BME280;58640;51.320;9.456;2022-08-19T01:04:05;99012.25;;;20.84;68.88
70982;BME280;58640;51.320;9.456;2022-08-19T01:06:32;99011.00;;;20.75;69.24
70982;BME280;58640;51.320;9.456;2022-08-19T01:08:59;99005.69;;;20.68;69.91
70982;BME280;58640;51.320;9.456;2022-08-19T01:11:28;98998.66;;;20.72;69.86
70982;BME280;58640;51.320;9.456;2022-08-19T01:13:55;98999.88;;;20.81;69.46
70982;BME280;58640;51.320;9.456;2022-08-19T01:16:24;98994.50;;;20.70;70.29
70982;BME280;58640;51.320;9.456;2022-08-19T01:18:50;98982.69;;;20.64;71.08
70982;BME280;58640;51.320;9.456;2022-08-19T01:21:37;98992.72;;;20.59;71.08
70982;BME280;58640;51.320;9.456;2022-08-19T01:24:06;98989.22;;;20.63;70.79
70982;BME280;58640;51.320;9.456;2022-08-19T01:26:31;98984.91;;;20.67;71.23
70982;BME280;58640;51.320;9.456;2022-08-19T01:29:02;98982.13;;;20.62;71.02
70982;BME280;58640;51.320;9.456;2022-08-19T01:31:29;98982.28;;;20.56;71.62
70982;BME280;58640;51.320;9.456;2022-08-19T01:33:57;98988.09;;;20.59;71.52
70982;BME280;58640;51.320;9.456;2022-08-19T01:38:55;99004.06;;;20.67;71.31
70982;BME280;58640;51.320;9.456;2022-08-19T01:41:20;99000.31;;;20.73;70.98
70982;BME280;58640;51.320;9.456;2022-08-19T01:43:49;99000.28;;;20.90;70.27
70982;BME280;58640;51.320;9.456;2022-08-19T01:46:15;98998.75;;;20.77;71.21
70982;BME280;58640;51.320;9.456;2022-08-19T01:48:42;99004.22;;;20.77;70.98
70982;BME280;58640;51.320;9.456;2022-08-19T01:51:10;98998.16;;;20.75;71.06
70982;BME280;58640;51.320;9.456;2022-08-19T01:53:36;98995.53;;;20.64;71.75
70982;BME280;58640;51.320;9.456;2022-08-19T01:56:03;98996.53;;;20.74;71.43
70982;BME280;58640;51.320;9.456;2022-08-19T01:58:36;99001.97;;;20.74;71.37
70982;BME280;58640;51.320;9.456;2022-08-19T02:01:04;99005.53;;;20.75;71.04
70982;BME280;58640;51.320;9.456;2022-08-19T02:03:30;99003.69;;;20.97;70.31
70982;BME280;58640;51.320;9.456;2022-08-19T02:06:00;99003.28;;;20.72;71.53
70982;BME280;58640;51.320;9.456;2022-08-19T02:08:29;99000.97;;;20.80;71.07
70982;BME280;58640;51.320;9.456;2022-08-19T02:10:55;98999.72;;;20.71;71.34
70982;BME280;58640;51.320;9.456;2022-08-19T02:13:21;98998.09;;;20.70;71.60
70982;BME280;58640;51.320;9.456;2022-08-19T02:15:47;99001.31;;;20.67;71.45
70982;BME280;58640;51.320;9.456;2022-08-19T02:18:12;98996.34;;;20.64;71.36
70982;BME280;58640;51.320;9.456;2022-08-19T02:20:39;98993.63;;;20.64;71.70
70982;BME280;58640;51.320;9.456;2022-08-19T02:23:06;98996.88;;;20.61;71.81
70982;BME280;58640;51.320;9.456;2022-08-19T02:25:32;98986.69;;;20.57;72.05
70982;BME280;58640;51.320;9.456;2022-08-19T02:27:57;98994.69;;;20.63;71.61
70982;BME280;58640;51.320;9.456;2022-08-19T02:30:23;98983.75;;;20.63;71.63
70982;BME280;58640;51.320;9.456;2022-08-19T02:32:50;98986.69;;;20.57;71.88
70982;BME280;58640;51.320;9.456;2022-08-19T02:35:16;98995.63;;;20.52;72.45
70982;BME280;58640;51.320;9.456;2022-08-19T02:37:42;98995.16;;;20.55;72.29
70982;BME280;58640;51.320;9.456;2022-08-19T02:40:27;98992.22;;;20.62;71.59
70982;BME280;58640;51.320;9.456;2022-08-19T02:42:53;99012.50;;;20.49;72.38
70982;BME280;58640;51.320;9.456;2022-08-19T02:45:19;99013.25;;;20.45;72.56
70982;BME280;58640;51.320;9.456;2022-08-19T02:47:44;99004.97;;;20.56;72.16
70982;BME280;58640;51.320;9.456;2022-08-19T02:50:09;98998.50;;;20.46;72.38
70982;BME280;58640;51.320;9.456;2022-08-19T02:52:35;98993.13;;;20.51;72.00
70982;BME280;58640;51.320;9.456;2022-08-19T02:55:01;98993.22;;;20.56;71.41
70982;BME280;58640;51.320;9.456;2022-08-19T02:57:27;99004.91;;;20.51;71.84
70982;BME280;58640;51.320;9.456;2022-08-19T02:59:52;98999.09;;;20.48;71.77
70982;BME280;58640;51.320;9.456;2022-08-19T03:02:18;98999.84;;;20.43;72.08
70982;BME280;58640;51.320;9.456;2022-08-19T03:04:44;98998.75;;;20.44;72.22
70982;BME280;58640;51.320;9.456;2022-08-19T03:07:13;98999.25;;;20.58;71.43
70982;BME280;58640;51.320;9.456;2022-08-19T03:09:39;99002.66;;;20.65;70.80
70982;BME280;58640;51.320;9.456;2022-08-19T03:12:04;98999.94;;;20.65;70.89
70982;BME280;58640;51.320;9.456;2022-08-19T03:14:31;99006.53;;;20.52;71.39
70982;BME280;58640;51.320;9.456;2022-08-19T03:16:57;99007.97;;;20.55;71.06
70982;BME280;58640;51.320;9.456;2022-08-19T03:19:23;99019.56;;;20.45;71.90
70982;BME280;58640;51.320;9.456;2022-08-19T03:21:49;99023.47;;;20.33;72.32
70982;BME280;58640;51.320;9.456;2022-08-19T03:24:16;99018.97;;;20.43;71.60
70982;BME280;58640;51.320;9.456;2022-08-19T03:26:45;99025.63;;;20.47;71.23
70982;BME280;58640;51.320;9.456;2022-08-19T03:29:11;99022.72;;;20.37;71.67
70982;BME280;58640;51.320;9.456;2022-08-19T03:31:39;99028.94;;;20.33;71.86
70982;BME280;58640;51.320;9.456;2022-08-19T03:34:05;99022.56;;;20.44;71.41
70982;BME280;58640;51.320;9.456;2022-08-19T03:36:30;99028.19;;;20.37;71.35
70982;BME280;58640;51.320;9.456;2022-08-19T03:38:58;99035.78;;;20.35;71.33
70982;BME280;58640;51.320;9.456;2022-08-19T03:41:29;99033.88;;;20.36;70.95
70982;BME280;58640;51.320;9.456;2022-08-19T03:43:56;99035.78;;;20.35;70.88
70982;BME280;58640;51.320;9.456;2022-08-19T03:46:25;99037.94;;;20.33;71.02
70982;BME280;58640;51.320;9.456;2022-08-19T03:48:53;99043.56;;;20.43;70.36
70982;BME280;58640;51.320;9.456;2022-08-19T03:51:22;99045.13;;;20.22;71.48
70982;BME280;58640;51.320;9.456;2022-08-19T03:53:48;99039.00;;;20.15;71.71
70982;BME280;58640;51.320;9.456;2022-08-19T03:56:14;99033.38;;;20.22;71.05
70982;BME280;58640;51.320;9.456;2022-08-19T03:58:40;99036.09;;;20.22;71.39
70982;BME280;58640;51.320;9.456;2022-08-19T04:01:11;99036.44;;;20.25;71.06
70982;BME280;58640;51.320;9.456;2022-08-19T04:03:38;99030.06;;;20.37;70.90
70982;BME280;58640;51.320;9.456;2022-08-19T04:06:15;99036.09;;;20.22;71.39
70982;BME280;58640;51.320;9.456;2022-08-19T04:08:41;99042.19;;;20.12;71.96
70982;BME280;58640;51.320;9.456;2022-08-19T04:11:12;99038.75;;;20.17;71.57
70982;BME280;58640;51.320;9.456;2022-08-19T04:13:38;99044.06;;;20.23;70.79
70982;BME280;58640;51.320;9.456;2022-08-19T04:16:04;99045.53;;;20.14;70.73
70982;BME280;58640;51.320;9.456;2022-08-19T04:18:30;99046.06;;;20.00;71.64
70982;BME280;58640;51.320;9.456;2022-08-19T04:20:56;99048.88;;;20.05;71.50
70982;BME280;58640;51.320;9.456;2022-08-19T04:23:22;99051.72;;;20.10;71.16
70982;BME280;58640;51.320;9.456;2022-08-19T04:25:48;99049.09;;;20.15;70.80
70982;BME280;58640;51.320;9.456;2022-08-19T04:28:13;99042.34;;;20.06;70.96
70982;BME280;58640;51.320;9.456;2022-08-19T04:30:48;99041.59;;;20.10;70.69
70982;BME280;58640;51.320;9.456;2022-08-19T04:33:15;99043.19;;;20.06;70.87
70982;BME280;58640;51.320;9.456;2022-08-19T04:35:43;99040.41;;;20.18;70.16
70982;BME280;58640;51.320;9.456;2022-08-19T04:38:09;99045.06;;;20.06;70.58
70982;BME280;58640;51.320;9.456;2022-08-19T04:40:40;99042.50;;;19.99;70.85
70982;BME280;58640;51.320;9.456;2022-08-19T04:43:24;99045.81;;;19.85;71.11
70982;BME280;58640;51.320;9.456;2022-08-19T04:45:49;99046.94;;;19.89;70.98
70982;BME280;58640;51.320;9.456;2022-08-19T04:48:17;99043.19;;;20.06;69.53
70982;BME280;58640;51.320;9.456;2022-08-19T04:50:58;99043.34;;;20.00;70.05
70982;BME280;58640;51.320;9.456;2022-08-19T04:53:25;99037.38;;;20.03;69.57
70982;BME280;58640;51.320;9.456;2022-08-19T04:55:54;99052.41;;;19.89;70.25
70982;BME280;58640;51.320;9.456;2022-08-19T04:58:21;99041.28;;;19.79;70.68
70982;BME280;58640;51.320;9.456;2022-08-19T05:00:46;99042.97;;;19.80;70.39
70982;BME280;58640;51.320;9.456;2022-08-19T05:03:12;99053.41;;;19.83;69.86
70982;BME280;58640;51.320;9.456;2022-08-19T05:05:39;99054.69;;;19.80;70.04
70982;BME280;58640;51.320;9.456;2022-08-19T05:08:05;99060.50;;;19.84;69.97
70982;BME280;58640;51.320;9.456;2022-08-19T05:10:31;99068.78;;;19.89;69.82
70982;BME280;58640;51.320;9.456;2022-08-19T05:12:56;99060.00;;;19.87;69.30
70982;BME280;58640;51.320;9.456;2022-08-19T05:15:22;99056.63;;;19.96;69.03
70982;BME280;58640;51.320;9.456;2022-08-19T05:17:47;99070.44;;;19.90;69.45
70982;BME280;58640;51.320;9.456;2022-08-19T05:20:33;99073.50;;;19.93;69.62
70982;BME280;58640;51.320;9.456;2022-08-19T05:23:17;99071.34;;;20.23;67.91
70982;BME280;58640;51.320;9.456;2022-08-19T05:25:42;99073.69;;;20.15;68.09
70982;BME280;58640;51.320;9.456;2022-08-19T05:28:08;99066.75;;;20.12;67.57
70982;BME280;58640;51.320;9.456;2022-08-19T05:30:33;99069.72;;;20.22;67.44
70982;BME280;58640;51.320;9.456;2022-08-19T05:32:59;99072.59;;;20.16;67.69
70982;BME280;58640;51.320;9.456;2022-08-19T05:35:24;99062.38;;;20.11;68.59
70982;BME280;58640;51.320;9.456;2022-08-19T05:37:50;99062.28;;;20.18;68.30
70982;BME280;58640;51.320;9.456;2022-08-19T05:40:15;99058.03;;;20.27;67.62
70982;BME280;58640;51.320;9.456;2022-08-19T05:42:41;99059.13;;;20.59;66.03
70982;BME280;58640;51.320;9.456;2022-08-19T05:45:06;99052.75;;;20.54;65.81
70982;BME280;58640;51.320;9.456;2022-08-19T05:47:32;99066.50;;;20.59;66.12
70982;BME280;58640;51.320;9.456;2022-08-19T05:49:58;99059.22;;;20.48;66.44
70982;BME280;58640;51.320;9.456;2022-08-19T05:52:23;99058.97;;;20.66;65.30
70982;BME280;58640;51.320;9.456;2022-08-19T05:54:48;99057.31;;;20.65;65.61
70982;BME280;58640;51.320;9.456;2022-08-19T05:57:16;99061.44;;;20.51;66.29
70982;BME280;58640;51.320;9.456;2022-08-19T05:59:41;99059.13;;;20.59;66.16
70982;BME280;58640;51.320;9.456;2022-08-19T06:02:07;99055.56;;;20.75;65.30
70982;BME280;58640;51.320;9.456;2022-08-19T06:04:33;99047.84;;;21.05;63.64
70982;BME280;58640;51.320;9.456;2022-08-19T06:06:59;99059.97;;;21.14;63.30
70982;BME280;58640;51.320;9.456;2022-08-19T06:09:24;99052.09;;;20.96;63.65
70982;BME280;58640;51.320;9.456;2022-08-19T06:11:53;99036.78;;;21.17;62.36
70982;BME280;58640;51.320;9.456;2022-08-19T06:14:22;99043.47;;;21.26;62.44
70982;BME280;58640;51.320;9.456;2022-08-19T06:16:48;99044.66;;;21.13;63.16
70982;BME280;58640;51.320;9.456;2022-08-19T06:19:17;99049.38;;;21.18;63.56
70982;BME280;58640;51.320;9.456;2022-08-19T06:21:44;99050.19;;;21.40;62.48
70982;BME280;58640;51.320;9.456;2022-08-19T06:24:13;99050.28;;;21.23;63.60
70982;BME280;58640;51.320;9.456;2022-08-19T06:26:43;99063.53;;;21.31;63.12
70982;BME280;58640;51.320;9.456;2022-08-19T06:29:10;99062.81;;;21.41;63.35
70982;BME280;58640;51.320;9.456;2022-08-19T06:31:36;99071.84;;;21.63;61.90
70982;BME280;58640;51.320;9.456;2022-08-19T06:34:04;99076.13;;;21.76;61.13
70982;BME280;58640;51.320;9.456;2022-08-19T06:36:34;99079.81;;;21.86;61.26
70982;BME280;58640;51.320;9.456;2022-08-19T06:39:02;99088.06;;;21.91;61.47
70982;BME280;58640;51.320;9.456;2022-08-19T06:41:30;99086.09;;;22.08;60.13
70982;BME280;58640;51.320;9.456;2022-08-19T06:43:56;99087.56;;;21.94;60.85
70982;BME280;58640;51.320;9.456;2022-08-19T06:46:22;99098.63;;;22.04;60.84
70982;BME280;58640;51.320;9.456;2022-08-19T06:48:47;99112.38;;;21.83;61.36
70982;BME280;58640;51.320;9.456;2022-08-19T06:51:17;99111.00;;;22.07;60.24
70982;BME280;58640;51.320;9.456;2022-08-19T06:53:49;99113.28;;;22.15;59.91
70982;BME280;58640;51.320;9.456;2022-08-19T06:56:23;99122.06;;;22.17;60.24
70982;BME280;58640;51.320;9.456;2022-08-19T06:58:50;99127.84;;;22.47;59.86
70982;BME280;58640;51.320;9.456;2022-08-19T07:01:18;99145.22;;;22.84;59.21
70982;BME280;58640;51.320;9.456;2022-08-19T07:03:44;99141.13;;;23.23;57.06
70982;BME280;58640;51.320;9.456;2022-08-19T07:06:13;99154.59;;;23.25;57.04
70982;BME280;58640;51.320;9.456;2022-08-19T07:08:40;99149.06;;;23.20;56.95
70982;BME280;58640;51.320;9.456;2022-08-19T07:11:09;99153.69;;;23.56;55.51
70982;BME280;58640;51.320;9.456;2022-08-19T07:13:36;99152.38;;;23.68;55.35
70982;BME280;58640;51.320;9.456;2022-08-19T07:16:08;99150.69;;;24.09;54.28
70982;BME280;58640;51.320;9.456;2022-08-19T07:18:35;99146.53;;;24.06;54.18
70982;BME280;58640;51.320;9.456;2022-08-19T07:21:09;99144.00;;;23.90;54.60
70982;BME280;58640;51.320;9.456;2022-08-19T07:23:35;99142.75;;;24.27;54.21
70982;BME280;58640;51.320;9.456;2022-08-19T07:26:15;99145.63;;;24.78;52.67
70982;BME280;58640;51.320;9.456;2022-08-19T07:28:42;99148.66;;;24.81;52.23
70982;BME280;58640;51.320;9.456;2022-08-19T07:31:11;99156.66;;;24.83;51.67
70982;BME280;58640;51.320;9.456;2022-08-19T07:33:39;99153.34;;;24.81;52.45
70982;BME280;58640;51.320;9.456;2022-08-19T07:36:07;99151.66;;;24.80;52.23
70982;BME280;58640;51.320;9.456;2022-08-19T07:38:34;99164.03;;;24.67;52.66
70982;BME280;58640;51.320;9.456;2022-08-19T07:41:00;99160.41;;;24.46;52.50
70982;BME280;58640;51.320;9.456;2022-08-19T07:43:26;99153.25;;;24.40;53.06
70982;BME280;58640;51.320;9.456;2022-08-19T07:45:53;99161.03;;;24.84;51.99
70982;BME280;58640;51.320;9.456;2022-08-19T07:48:22;99158.25;;;25.49;49.59
70982;BME280;58640;51.320;9.456;2022-08-19T07:50:50;99150.84;;;25.14;50.15
70982;BME280;58640;51.320;9.456;2022-08-19T07:53:15;99150.59;;;24.81;51.58
70982;BME280;58640;51.320;9.456;2022-08-19T07:55:41;99147.72;;;24.30;52.98
70982;BME280;58640;51.320;9.456;2022-08-19T07:58:06;99144.03;;;24.00;54.48
70982;BME280;58640;51.320;9.456;2022-08-19T08:00:32;99149.06;;;24.18;53.24
70982;BME280;58640;51.320;9.456;2022-08-19T08:02:57;99140.25;;;24.16;52.95
70982;BME280;58640;51.320;9.456;2022-08-19T08:05:23;99156.44;;;24.02;53.71
70982;BME280;58640;51.320;9.456;2022-08-19T08:08:07;99145.50;;;24.22;53.43
70982;BME280;58640;51.320;9.456;2022-08-19T08:10:51;99155.44;;;24.28;53.27
70982;BME280;58640;51.320;9.456;2022-08-19T08:13:17;99158.38;;;24.12;53.09
70982;BME280;58640;51.320;9.456;2022-08-19T08:15:42;99159.75;;;24.09;53.21
70982;BME280;58640;51.320;9.456;2022-08-19T08:18:11;99159.88;;;23.83;53.78
70982;BME280;58640;51.320;9.456;2022-08-19T08:20:37;99152.38;;;23.58;54.84
70982;BME280;58640;51.320;9.456;2022-08-19T08:23:02;99158.97;;;23.62;55.59
70982;BME280;58640;51.320;9.456;2022-08-19T08:25:46;99163.25;;;23.95;54.60
70982;BME280;58640;51.320;9.456;2022-08-19T08:28:13;99171.84;;;24.13;53.26
70982;BME280;58640;51.320;9.456;2022-08-19T08:30:38;99173.03;;;24.37;52.53
70982;BME280;58640;51.320;9.456;2022-08-19T08:33:06;99167.00;;;24.45;52.19
70982;BME280;58640;51.320;9.456;2022-08-19T08:35:32;99168.19;;;24.70;52.64
70982;BME280;58640;51.320;9.456;2022-08-19T08:37:59;99169.28;;;24.84;51.51
70982;BME280;58640;51.320;9.456;2022-08-19T08:43:27;99185.78;;;24.74;51.51
70982;BME280;58640;51.320;9.456;2022-08-19T08:51:09;99203.41;;;24.01;53.06
70982;BME280;58640;51.320;9.456;2022-08-19T08:53:36;99211.78;;;23.79;53.23
70982;BME280;58640;51.320;9.456;2022-08-19T08:56:03;99202.50;;;23.44;54.57
70982;BME280;58640;51.320;9.456;2022-08-19T08:58:46;99206.72;;;23.56;54.75
70982;BME280;58640;51.320;9.456;2022-08-19T09:01:13;99211.28;;;23.46;54.72
70982;BME280;58640;51.320;9.456;2022-08-19T09:03:40;99206.44;;;23.21;54.97
70982;BME280;58640;51.320;9.456;2022-08-19T09:09:14;99203.97;;;22.93;55.45
70982;BME280;58640;51.320;9.456;2022-08-19T09:11:50;99211.72;;;23.01;55.14
70982;BME280;58640;51.320;9.456;2022-08-19T09:14:32;99193.34;;;23.01;54.84
70982;BME280;58640;51.320;9.456;2022-08-19T09:16:59;99196.09;;;23.01;54.86
70982;BME280;58640;51.320;9.456;2022-08-19T09:19:29;99190.94;;;23.05;54.06
70982;BME280;58640;51.320;9.456;2022-08-19T09:21:54;99204.66;;;23.05;54.60
70982;BME280;58640;51.320;9.456;2022-08-19T09:24:20;99200.75;;;23.01;55.29
70982;BME280;58640;51.320;9.456;2022-08-19T09:26:45;99207.03;;;22.96;55.67
70982;BME280;58640;51.320;9.456;2022-08-19T09:29:11;99195.19;;;23.23;53.56
70982;BME280;58640;51.320;9.456;2022-08-19T09:31:37;99201.38;;;23.08;55.29
70982;BME280;58640;51.320;9.456;2022-08-19T09:34:03;99199.41;;;23.03;54.94
70982;BME280;58640;51.320;9.456;2022-08-19T09:36:30;99192.03;;;23.04;55.48
70982;BME280;58640;51.320;9.456;2022-08-19T09:39:02;99197.03;;;23.12;54.51
70982;BME280;58640;51.320;9.456;2022-08-19T09:41:28;99189.34;;;23.14;54.86
70982;BME280;58640;51.320;9.456;2022-08-19T09:43:55;99191.34;;;23.24;54.59
70982;BME280;58640;51.320;9.456;2022-08-19T09:46:23;99192.03;;;23.09;54.72
70982;BME280;58640;51.320;9.456;2022-08-19T09:48:49;99187.53;;;23.25;53.84
70982;BME280;58640;51.320;9.456;2022-08-19T09:51:27;99193.59;;;23.27;54.20
70982;BME280;58640;51.320;9.456;2022-08-19T09:53:59;99191.16;;;23.30;54.30
70982;BME280;58640;51.320;9.456;2022-08-19T09:56:25;99183.59;;;23.15;54.46
70982;BME280;58640;51.320;9.456;2022-08-19T09:58:50;99186.06;;;23.17;54.10
70982;BME280;58640;51.320;9.456;2022-08-19T10:01:19;99186.13;;;23.22;54.19
70982;BME280;58640;51.320;9.456;2022-08-19T10:03:47;99200.91;;;23.16;54.67
70982;BME280;58640;51.320;9.456;2022-08-19T10:06:13;99198.06;;;23.38;53.15
70982;BME280;58640;51.320;9.456;2022-08-19T10:08:38;99194.09;;;23.24;53.41
70982;BME280;58640;51.320;9.456;2022-08-19T10:47:45;99157.66;;;24.36;51.23
70982;BME280;58640;51.320;9.456;2022-08-19T10:50:11;99164.53;;;24.44;51.11
70982;BME280;58640;51.320;9.456;2022-08-19T10:52:55;99168.03;;;24.24;51.66
70982;BME280;58640;51.320;9.456;2022-08-19T10:55:23;99160.38;;;24.31;50.80
70982;BME280;58640;51.320;9.456;2022-08-19T10:58:12;99168.03;;;24.19;51.05
70982;BME280;58640;51.320;9.456;2022-08-19T11:00:38;99168.03;;;24.24;51.17
70982;BME280;58640;51.320;9.456;2022-08-19T11:03:03;99149.06;;;24.23;51.11
70982;BME280;58640;51.320;9.456;2022-08-19T11:05:28;99148.03;;;24.44;50.34
70982;BME280;58640;51.320;9.456;2022-08-19T11:07:55;99148.91;;;24.85;49.36
70982;BME280;58640;51.320;9.456;2022-08-19T11:10:20;99155.81;;;24.92;48.88
70982;BME280;58640;51.320;9.456;2022-08-19T11:12:46;99144.53;;;24.84;49.62
70982;BME280;58640;51.320;9.456;2022-08-19T11:15:12;99140.94;;;24.88;49.11
70982;BME280;58640;51.320;9.456;2022-08-19T11:17:41;99142.59;;;25.09;48.17
70982;BME280;58640;51.320;9.456;2022-08-19T11:20:09;99132.66;;;25.18;47.88
70982;BME280;58640;51.320;9.456;2022-08-19T11:22:35;99130.16;;;25.47;47.10
70982;BME280;58640;51.320;9.456;2022-08-19T11:25:00;99134.59;;;25.43;47.40
70982;BME280;58640;51.320;9.456;2022-08-19T11:27:25;99125.25;;;25.19;46.54
70982;BME280;58640;51.320;9.456;2022-08-19T11:29:51;99127.47;;;25.02;47.36
70982;BME280;58640;51.320;9.456;2022-08-19T11:32:17;99122.50;;;25.14;47.75
70982;BME280;58640;51.320;9.456;2022-08-19T11:34:43;99122.75;;;25.12;47.75
70982;BME280;58640;51.320;9.456;2022-08-19T11:37:08;99119.47;;;25.10;47.69
70982;BME280;58640;51.320;9.456;2022-08-19T11:39:35;99125.25;;;25.09;47.40
70982;BME280;58640;51.320;9.456;2022-08-19T11:42:03;99123.59;;;25.03;47.63
70982;BME280;58640;51.320;9.456;2022-08-19T11:44:50;99114.78;;;25.11;47.63
70982;BME280;58640;51.320;9.456;2022-08-19T11:47:15;99121.41;;;25.05;47.87
70982;BME280;58640;51.320;9.456;2022-08-19T11:49:41;99108.72;;;25.14;46.46
70982;BME280;58640;51.320;9.456;2022-08-19T11:52:07;99100.19;;;25.20;46.87
70982;BME280;58640;51.320;9.456;2022-08-19T11:54:32;99110.66;;;25.13;47.27
70982;BME280;58640;51.320;9.456;2022-08-19T11:56:58;99110.34;;;25.25;47.25
70982;BME280;58640;51.320;9.456;2022-08-19T11:59:23;99104.06;;;25.19;46.96
70982;BME280;58640;51.320;9.456;2022-08-19T12:01:49;99111.47;;;25.19;45.94
70982;BME280;58640;51.320;9.456;2022-08-19T12:04:14;99109.84;;;25.13;48.02
70982;BME280;58640;51.320;9.456;2022-08-19T12:06:40;99112.53;;;25.28;47.03
70982;BME280;58640;51.320;9.456;2022-08-19T12:09:07;99109.25;;;25.36;46.29
70982;BME280;58640;51.320;9.456;2022-08-19T12:11:35;99096.88;;;25.38;46.33
70982;BME280;58640;51.320;9.456;2022-08-19T12:14:02;99097.97;;;25.27;46.64
70982;BME280;58640;51.320;9.456;2022-08-19T12:16:29;99082.00;;;25.39;45.21
70982;BME280;58640;51.320;9.456;2022-08-19T12:18:56;99086.94;;;25.32;45.35
70982;BME280;58640;51.320;9.456;2022-08-19T12:21:25;99093.56;;;25.21;46.08
70982;BME280;58640;51.320;9.456;2022-08-19T12:23:55;99082.81;;;25.30;45.61
70982;BME280;58640;51.320;9.456;2022-08-19T12:26:21;99088.31;;;25.25;46.36
70982;BME280;58640;51.320;9.456;2022-08-19T12:28:46;99084.44;;;25.31;46.04
70982;BME280;58640;51.320;9.456;2022-08-19T12:31:13;99087.22;;;25.46;45.20
70982;BME280;58640;51.320;9.456;2022-08-19T12:33:40;99082.53;;;25.41;45.00
70982;BME280;58640;51.320;9.456;2022-08-19T12:36:08;99066.81;;;25.42;44.55
70982;BME280;58640;51.320;9.456;2022-08-19T12:38:34;99080.88;;;25.40;44.77
70982;BME280;58640;51.320;9.456;2022-08-19T12:41:00;99081.16;;;25.39;45.11
70982;BME280;58640;51.320;9.456;2022-08-19T12:43:29;99075.38;;;25.30;45.36
70982;BME280;58640;51.320;9.456;2022-08-19T12:45:55;99072.06;;;25.33;44.95
70982;BME280;58640;51.320;9.456;2022-08-19T12:48:20;99066.28;;;25.30;45.45
70982;BME280;58640;51.320;9.456;2022-08-19T12:50:46;99064.06;;;25.42;45.22
70982;BME280;58640;51.320;9.456;2022-08-19T12:53:12;99071.75;;;25.50;45.48
70982;BME280;58640;51.320;9.456;2022-08-19T12:55:38;99065.47;;;25.39;44.74
70982;BME280;58640;51.320;9.456;2022-08-19T12:58:03;99063.81;;;25.43;44.08
70982;BME280;58640;51.320;9.456;2022-08-19T13:00:29;99060.50;;;25.31;44.21
70982;BME280;58640;51.320;9.456;2022-08-19T13:02:58;99069.56;;;25.52;43.17
70982;BME280;58640;51.320;9.456;2022-08-19T13:05:26;99065.47;;;25.29;44.07
70982;BME280;58640;51.320;9.456;2022-08-19T13:07:53;99066.03;;;25.26;43.71
70982;BME280;58640;51.320;9.456;2022-08-19T13:10:24;99056.94;;;25.36;42.71
70982;BME280;58640;51.320;9.456;2022-08-19T13:12:52;99052.25;;;25.26;42.79
70982;BME280;58640;51.320;9.456;2022-08-19T13:15:19;99069.59;;;25.27;42.05
70982;BME280;58640;51.320;9.456;2022-08-19T13:17:46;99057.25;;;25.19;42.21
70982;BME280;58640;51.320;9.456;2022-08-19T13:20:13;99052.25;;;25.26;41.99
70982;BME280;58640;51.320;9.456;2022-08-19T13:22:38;99056.41;;;25.29;41.63
70982;BME280;58640;51.320;9.456;2022-08-19T13:25:05;99050.03;;;25.33;41.55
70982;BME280;58640;51.320;9.456;2022-08-19T13:27:31;99056.34;;;25.49;41.34
70982;BME280;58640;51.320;9.456;2022-08-19T13:29:56;99057.47;;;25.48;41.57
70982;BME280;58640;51.320;9.456;2022-08-19T13:32:40;99060.72;;;25.55;41.33
70982;BME280;58640;51.320;9.456;2022-08-19T13:35:24;99051.97;;;25.48;41.20
70982;BME280;58640;51.320;9.456;2022-08-19T13:37:49;99058.84;;;25.40;42.02
70982;BME280;58640;51.320;9.456;2022-08-19T13:40:21;99056.63;;;25.32;42.35
70982;BME280;58640;51.320;9.456;2022-08-19T13:42:51;99060.25;;;25.38;41.94
70982;BME280;58640;51.320;9.456;2022-08-19T13:45:19;99061.88;;;25.39;42.45
70982;BME280;58640;51.320;9.456;2022-08-19T13:47:46;99055.84;;;25.37;42.54
70982;BME280;58640;51.320;9.456;2022-08-19T13:50:15;99054.72;;;25.28;43.02
70982;BME280;58640;51.320;9.456;2022-08-19T13:52:41;99049.50;;;25.46;42.73